METAR Data
IDs: Format: Raw Decoded Include TAF

Data at: 1352 UTC 10 Aug 2022

KLAX 101253Z 25005KT 10SM FEW200 FEW250 21/18 A2996 RMK AO2 SLP144 T02110178 $
KLAX 101153Z 24004KT 10SM FEW200 FEW250 21/18 A2996 RMK AO2 SLP142 T02110178 10233 20211 56003 $
KLAX 101053Z 25003KT 10SM FEW200 FEW250 21/18 A2996 RMK AO2 SLP141 T02110178 $
KLAX 100953Z 32003KT 10SM FEW200 FEW250 22/18 A2996 RMK AO2 SLP141 T02170183
KLAX 100853Z 24004KT 10SM FEW200 FEW250 22/18 A2997 RMK AO2 SLP144 T02170178 58000
KLAX 100753Z 25003KT 10SM FEW150 FEW200 SCT250 22/18 A2997 RMK AO2 SLP144 T02170178 402890217
KLAX 100653Z 01003KT 10SM FEW150 SCT200 BKN250 23/16 A2997 RMK AO2 SLP145 T02280161
KLAX 100553Z 19003KT 10SM SCT150 BKN250 23/16 A2997 RMK AO2 SLP144 T02280161 10250 20222 51021
KLAX 100453Z 19003KT 10SM SCT150 BKN250 23/16 A2995 RMK AO2 SLP141 T02330156
KLAX 100353Z 24006KT 10SM FEW150 BKN250 23/14 A2993 RMK AO2 SLP131 T02280144
KLAX 100253Z 23006KT 10SM FEW030 FEW150 SCT200 SCT250 22/16 A2990 RMK AO2 SLP123 T02220156 53002
KLAX 100153Z 26010KT 10SM FEW030 FEW150 SCT250 23/16 A2989 RMK AO2 SLP120 T02280156
KLAX 100053Z 26014KT 10SM FEW030 FEW150 SCT250 24/16 A2989 RMK AO2 SLP121 T02390161
KLAX 092353Z 26014KT 10SM FEW025 FEW100 SCT150 SCT250 24/16 A2990 RMK AO2 SLP121 T02440156 10289 20244 56010
KLAX 092253Z 27010KT 10SM FEW025 FEW100 SCT150 27/16 A2990 RMK AO2 SLP123 T02670156
KLAX 092153Z 26012KT 10SM FEW025 FEW100 SCT150 27/16 A2991 RMK AO2 SLP126 T02720161
KLAX 092053Z 26010KT 10SM FEW025 FEW090 SCT140 SCT180 29/17 A2992 RMK AO2 SLP131 T02890167 58011
KLAX 091953Z 26008KT 10SM FEW065 FEW090 SCT140 28/16 A2994 RMK AO2 SLP136 T02780161
KLAX 091853Z 25008KT 10SM FEW060 FEW080 SCT170 27/17 A2995 RMK AO2 SLP140 T02720167
KLAX 091753Z 27011KT 10SM FEW095 SCT150 BKN190 27/17 A2996 RMK AO2 SLP142 T02670167 10283 20217 51007
KLAX 091653Z 26008KT 10SM FEW090 SCT160 BKN180 26/17 A2995 RMK AO2 SLP139 T02560172
KLAX 091553Z 19004KT 10SM FEW090 FEW140 SCT180 BKN250 27/17 A2994 RMK AO2 SLP137 T02670172
KLAX 091453Z 24003KT 10SM FEW085 FEW140 SCT180 BKN250 24/18 A2994 RMK AO2 SLP134 T02390178 51013
KLAX 091353Z 24005KT 9SM FEW080 FEW100 SCT140 SCT180 BKN250 22/18 A2993 RMK AO2 SLP132 T02170178
KLAX 091253Z 25004KT 10SM FEW100 SCT140 BKN170 BKN250 22/17 A2991 RMK AO2 SLP126 T02170167
KLAX 091153Z 00000KT 10SM FEW140 BKN170 BKN250 23/16 A2990 RMK AO2 SLP121 T02280156 10228 20217 56003
KLAX 091053Z 00000KT 10SM FEW140 BKN170 BKN250 23/16 A2990 RMK AO2 SLP121 T02280156
KLAX 090953Z 00000KT 10SM FEW150 BKN220 BKN280 22/16 A2990 RMK AO2 SLP123 T02220161
KLAX 090853Z 26004KT 10SM SCT220 BKN280 22/16 A2991 RMK AO2 SLP125 T02220161 58006
KLAX 090753Z 27003KT 10SM SCT220 BKN280 22/16 A2992 RMK AO2 SLP130 T02220156 402780200
KLAX 090653Z 23004KT 10SM FEW220 BKN280 22/15 A2993 RMK AO2 SLP132 T02220150
KLAX 090553Z 25007KT 10SM FEW220 BKN280 22/15 A2993 RMK AO2 SLP131 T02170150 10250 20217 50013
KLAX 090453Z 23004KT 10SM FEW220 BKN280 23/14 A2993 RMK AO2 SLP133 T02280144
KLAX 090353Z COR 21004KT 10SM BKN250 22/14 A2992 RMK AO2 SLP127 T02170144
KLAX 090253Z 27009KT 10SM FEW150 SCT200 22/15 A2989 RMK AO2 SLP118 T02220150 53002
KLAX 090153Z 26009KT 10SM FEW150 FEW200 23/16 A2987 RMK AO2 SLP113 T02280156